Time;durP1;ratioP1;P1;durP2;ratioP2;P2;SDS_P1;SDS_P2;PMS_P1;PMS_P2;Temp;Humidity;BMP_temperature;BMP_pressure;BME280_temperature;BME280_humidity;BME280_pressure;Samples;Min_cycle;Max_cycle;Signal;HPM_P1;HPM_P2
2023/08/31 00:00:51;;;;;;;5.32;3.30;;;;;;;25.37;44.07;99006.44;5139583;27;20057;-66
2023/08/31 00:03:16;;;;;;;4.93;3.35;;;;;;;25.34;44.02;99012.41;5139617;27;20035;-66
2023/08/31 00:05:43;;;;;;;5.22;3.50;;;;;;;25.34;43.71;99007.00;5138429;28;20103;-66
2023/08/31 00:08:11;;;;;;;6.22;3.50;;;;;;;25.25;43.85;99014.88;5138347;27;20067;-65
2023/08/31 00:10:37;;;;;;;5.35;3.83;;;;;;;25.24;44.01;99017.88;5139134;28;20100;-66
2023/08/31 00:13:04;;;;;;;4.63;4.00;;;;;;;25.23;43.96;99008.94;5138665;28;20034;-66
2023/08/31 00:15:32;;;;;;;4.93;3.25;;;;;;;25.23;44.00;99017.06;5138867;28;20324;-65
2023/08/31 00:18:03;;;;;;;5.68;4.03;;;;;;;25.23;43.81;99014.34;5138932;28;20050;-66
2023/08/31 00:20:30;;;;;;;5.05;3.83;;;;;;;25.18;44.06;99021.69;5138482;28;20141;-66
2023/08/31 00:22:56;;;;;;;6.20;4.43;;;;;;;25.17;44.34;99022.75;5138740;28;20340;-65
2023/08/31 00:25:21;;;;;;;7.20;3.85;;;;;;;24.98;44.42;99020.63;5138131;28;20193;-66
2023/08/31 00:27:48;;;;;;;5.40;3.75;;;;;;;25.08;44.79;99026.03;5138535;28;20047;-65
2023/08/31 00:30:14;;;;;;;5.90;3.67;;;;;;;25.12;44.75;99027.09;5138888;28;20103;-66
2023/08/31 00:32:42;;;;;;;5.15;3.53;;;;;;;25.13;44.55;99017.91;5139452;28;20031;-65
2023/08/31 00:35:09;;;;;;;6.55;3.85;;;;;;;25.19;44.32;99024.09;5138763;28;20031;-66
2023/08/31 00:37:35;;;;;;;5.68;3.67;;;;;;;25.21;45.08;99030.06;5138073;28;20039;-66
2023/08/31 00:40:00;;;;;;;5.85;3.67;;;;;;;24.74;45.78;99036.56;5139057;28;20023;-66
2023/08/31 00:42:27;;;;;;;4.70;3.72;;;;;;;24.62;46.40;99035.22;5138817;28;20071;-65
2023/08/31 00:44:52;;;;;;;6.38;3.85;;;;;;;24.64;46.57;99033.06;5138988;28;20035;-65
2023/08/31 00:47:19;;;;;;;5.63;3.40;;;;;;;24.72;46.40;99044.16;5138447;28;20047;-66
2023/08/31 00:49:44;;;;;;;5.85;3.75;;;;;;;24.70;46.71;99043.63;5138858;28;20202;-66
2023/08/31 00:52:10;;;;;;;4.20;3.42;;;;;;;24.57;47.28;99040.63;5138675;28;20096;-65
2023/08/31 00:54:36;;;;;;;4.60;3.28;;;;;;;24.57;47.27;99041.44;5138631;28;20111;-65
2023/08/31 00:57:03;;;;;;;6.82;3.75;;;;;;;24.63;47.42;99044.97;5138740;28;20030;-65
2023/08/31 00:59:29;;;;;;;4.70;3.40;;;;;;;24.71;47.47;99053.38;5138528;28;20284;-66
2023/08/31 01:02:04;;;;;;;8.40;3.35;;;;;;;24.83;47.00;99058.50;5138869;28;20038;-66
2023/08/31 01:04:46;;;;;;;5.70;3.33;;;;;;;24.90;47.08;99059.03;5138426;28;20145;-66
2023/08/31 01:07:57;;;;;;;3.42;2.58;;;;;;;24.92;46.95;99056.88;5138307;28;20475;-65
2023/08/31 01:10:35;;;;;;;5.97;2.83;;;;;;;24.88;46.72;99060.41;5138961;28;20035;-66
2023/08/31 01:13:13;;;;;;;4.50;2.92;;;;;;;24.93;46.61;99060.38;5138715;28;20225;-66
2023/08/31 01:15:41;;;;;;;5.65;2.70;;;;;;;24.66;46.94;99055.25;5138469;28;20247;-65
2023/08/31 01:18:10;;;;;;;3.13;2.42;;;;;;;24.67;46.88;99057.69;5138060;28;20039;-65
2023/08/31 01:20:58;;;;;;;5.93;2.90;;;;;;;24.63;47.30;99056.59;5139961;27;20273;-65
2023/08/31 01:23:34;;;;;;;5.05;2.63;;;;;;;24.79;47.08;99065.53;5141974;27;20067;-66
2023/08/31 01:25:59;;;;;;;4.07;2.55;;;;;;;24.82;46.34;99067.72;5142041;27;20277;-65
2023/08/31 01:28:26;;;;;;;4.75;2.88;;;;;;;24.84;46.65;99079.09;5141774;27;20045;-66
2023/08/31 01:30:51;;;;;;;5.53;2.70;;;;;;;24.83;46.60;99080.16;5141969;27;20098;-66
2023/08/31 01:36:43;;;;;;;4.80;2.70;;;;;;;24.66;47.00;99071.50;5142032;27;20362;-65
2023/08/31 01:39:28;;;;;;;4.05;2.22;;;;;;;24.58;47.33;99080.16;5141777;27;20035;-66
2023/08/31 01:41:58;;;;;;;6.78;2.47;;;;;;;24.54;47.25;99076.38;5141901;27;20035;-65
2023/08/31 01:44:25;;;;;;;3.50;2.35;;;;;;;24.46;47.38;99075.81;5142094;27;20266;-65
2023/08/31 01:46:54;;;;;;;3.30;2.20;;;;;;;24.43;47.27;99076.34;5141642;27;20261;-65
2023/08/31 01:49:21;;;;;;;4.82;2.58;;;;;;;24.45;47.11;99085.00;5141447;27;20070;-65
2023/08/31 01:51:46;;;;;;;6.30;2.75;;;;;;;24.39;47.06;99079.88;5141514;27;20039;-65
2023/08/31 01:54:12;;;;;;;4.82;2.78;;;;;;;24.22;47.62;99081.97;5141345;27;20157;-65
2023/08/31 01:56:37;;;;;;;5.40;2.90;;;;;;;24.25;48.02;99086.84;5141902;27;20062;-66
2023/08/31 01:59:03;;;;;;;4.70;2.55;;;;;;;24.33;48.19;99092.56;5142177;27;20035;-65
2023/08/31 02:01:29;;;;;;;3.65;2.67;;;;;;;24.29;48.30;99096.88;5141910;27;20039;-65
2023/08/31 02:03:54;;;;;;;5.00;2.60;;;;;;;24.40;48.01;99098.53;5141485;27;20039;-66
2023/08/31 02:06:20;;;;;;;5.82;3.15;;;;;;;24.43;47.55;99091.78;5140852;27;20059;-65
2023/08/31 02:08:47;;;;;;;6.03;2.65;;;;;;;24.41;47.61;99105.56;5141618;27;20031;-66
2023/08/31 02:11:13;;;;;;;4.93;2.60;;;;;;;24.43;47.13;99102.59;5141581;27;20282;-66
2023/08/31 02:13:39;;;;;;;3.58;2.80;;;;;;;24.15;47.84;99101.16;5141609;27;20043;-65
2023/08/31 02:16:04;;;;;;;4.45;3.30;;;;;;;24.24;48.04;99104.16;5141424;27;20047;-66
2023/08/31 02:18:29;;;;;;;3.90;2.40;;;;;;;24.29;47.33;99106.91;5141012;27;20031;-66
2023/08/31 02:20:55;;;;;;;4.40;2.70;;;;;;;24.13;48.22;99108.72;5140883;27;20221;-65
2023/08/31 02:23:20;;;;;;;3.70;2.90;;;;;;;24.31;47.70;99115.56;5141082;27;20347;-66
2023/08/31 02:25:46;;;;;;;4.85;3.13;;;;;;;24.46;49.39;99113.69;5141187;27;20083;-66
2023/08/31 02:28:11;;;;;;;4.43;2.85;;;;;;;24.46;50.54;99116.41;5140823;27;20047;-66
2023/08/31 02:30:37;;;;;;;5.07;3.13;;;;;;;24.42;50.86;99115.31;5140768;27;20031;-66
2023/08/31 02:33:03;;;;;;;5.70;2.97;;;;;;;24.40;51.17;99111.25;5140928;27;20311;-65
2023/08/31 02:35:29;;;;;;;4.35;2.90;;;;;;;24.39;51.31;99115.84;5140971;27;20076;-65
2023/08/31 02:37:54;;;;;;;5.60;2.88;;;;;;;24.40;51.34;99120.19;5140351;27;20309;-66
2023/08/31 02:40:21;;;;;;;4.53;2.95;;;;;;;24.35;52.42;99122.06;5140396;27;20198;-65
2023/08/31 02:42:50;;;;;;;4.70;2.97;;;;;;;24.25;51.51;99124.72;5140679;27;20337;-66
2023/08/31 02:45:16;;;;;;;4.90;2.47;;;;;;;24.13;51.34;99122.25;5140520;27;20309;-65
2023/08/31 02:47:41;;;;;;;4.40;2.60;;;;;;;23.99;51.51;99127.34;5140514;27;20047;-66
2023/08/31 02:50:07;;;;;;;5.60;2.83;;;;;;;24.02;51.25;99124.09;5140425;27;20271;-65
2023/08/31 02:52:33;;;;;;;6.25;2.90;;;;;;;24.09;50.83;99121.16;5139424;27;20061;-66
2023/08/31 02:54:58;;;;;;;5.85;3.10;;;;;;;24.13;50.24;99133.06;5139871;27;20058;-65
2023/08/31 02:57:23;;;;;;;5.50;2.97;;;;;;;24.11;49.94;99132.50;5140559;27;20042;-65
2023/08/31 02:59:50;;;;;;;4.78;2.90;;;;;;;24.07;49.69;99136.81;5140449;27;20049;-66
2023/08/31 03:02:15;;;;;;;5.53;3.13;;;;;;;24.07;49.34;99134.94;5140301;27;20084;-66
2023/08/31 03:04:41;;;;;;;8.55;3.30;;;;;;;24.12;49.21;99144.97;5140361;27;20325;-65
2023/08/31 03:07:07;;;;;;;6.20;3.25;;;;;;;24.15;49.30;99147.94;5139570;27;20100;-65
2023/08/31 03:09:32;;;;;;;4.25;2.78;;;;;;;24.16;49.00;99146.88;5140459;27;20039;-65
2023/08/31 03:11:57;;;;;;;4.38;2.88;;;;;;;24.16;48.66;99151.47;5139723;27;20301;-65
2023/08/31 03:14:23;;;;;;;9.85;3.75;;;;;;;24.11;48.55;99149.56;5119497;27;20080;-65
2023/08/31 03:16:48;;;;;;;5.53;3.55;;;;;;;24.02;48.27;99147.63;5119548;28;20223;-65
2023/08/31 03:19:14;;;;;;;4.47;3.47;;;;;;;24.10;48.17;99145.22;5119251;28;20039;-65
2023/08/31 03:21:40;;;;;;;6.18;3.05;;;;;;;24.13;47.99;99157.41;5119321;28;20246;-65
2023/08/31 03:24:05;;;;;;;4.78;3.47;;;;;;;24.03;48.29;99154.66;5119595;28;20036;-65
2023/08/31 03:26:31;;;;;;;6.32;3.55;;;;;;;23.98;48.23;99149.22;5119766;28;20035;-65
2023/08/31 03:28:57;;;;;;;6.43;3.60;;;;;;;23.89;48.72;99151.59;5119031;28;20080;-66
2023/08/31 03:31:22;;;;;;;4.90;3.47;;;;;;;24.05;48.65;99155.22;5119330;28;20039;-65
2023/08/31 03:33:49;;;;;;;4.32;3.05;;;;;;;24.01;47.96;99157.63;5119343;28;20089;-65
2023/08/31 03:36:15;;;;;;;7.28;3.78;;;;;;;23.84;48.78;99154.28;5119756;28;20047;-66
2023/08/31 03:38:40;;;;;;;6.85;3.33;;;;;;;24.10;48.03;99152.53;5118990;28;20043;-65
2023/08/31 03:41:06;;;;;;;5.25;3.22;;;;;;;24.22;48.17;99153.09;5119559;28;20325;-66
2023/08/31 03:43:32;;;;;;;6.03;3.15;;;;;;;24.29;48.63;99153.72;5117831;28;20296;-65
2023/08/31 03:45:58;;;;;;;5.88;2.75;;;;;;;24.28;48.77;99152.09;5118928;28;20063;-65
2023/08/31 03:48:24;;;;;;;4.88;2.92;;;;;;;24.32;49.01;99157.78;5118941;28;20050;-65
2023/08/31 03:50:51;;;;;;;7.03;3.00;;;;;;;24.27;49.13;99157.75;5119272;28;20032;-65
2023/08/31 03:53:17;;;;;;;6.35;2.72;;;;;;;24.38;47.95;99162.13;5118466;28;20854;-65
2023/08/31 03:55:42;;;;;;;4.82;3.13;;;;;;;24.01;49.19;99167.63;5118855;28;20449;-65
2023/08/31 03:58:08;;;;;;;6.97;3.20;;;;;;;23.88;49.38;99164.28;5119157;28;20047;-66
2023/08/31 04:00:33;;;;;;;5.78;3.15;;;;;;;23.78;49.32;99175.06;5118978;28;20283;-65
2023/08/31 04:02:59;;;;;;;6.93;3.08;;;;;;;23.88;49.97;99188.63;5118775;28;20333;-65
2023/08/31 04:05:24;;;;;;;4.68;3.03;;;;;;;23.93;49.23;99184.31;5118484;28;20039;-65
2023/08/31 04:07:50;;;;;;;7.10;3.60;;;;;;;23.88;48.43;99182.41;5119537;28;20050;-66
2023/08/31 04:10:15;;;;;;;6.80;3.92;;;;;;;23.83;48.63;99194.00;5119478;28;20043;-66
2023/08/31 04:12:42;;;;;;;6.68;3.22;;;;;;;23.84;48.82;99186.72;5118567;28;20229;-65
2023/08/31 04:15:09;;;;;;;5.18;3.40;;;;;;;23.84;48.87;99198.34;5118628;28;20036;-66
2023/08/31 04:17:34;;;;;;;7.70;3.60;;;;;;;23.86;48.87;99209.72;5118047;28;20106;-65
2023/08/31 04:20:00;;;;;;;5.75;3.90;;;;;;;23.87;49.20;99208.63;5118223;28;20195;-66
2023/08/31 04:22:26;;;;;;;5.28;3.28;;;;;;;23.88;49.02;99220.25;5118210;28;20054;-65
2023/08/31 04:24:53;;;;;;;4.90;3.22;;;;;;;23.89;48.79;99225.41;5118472;28;20070;-66
2023/08/31 04:27:18;;;;;;;3.70;3.00;;;;;;;23.89;49.28;99225.41;5118328;28;20040;-65
2023/08/31 04:29:44;;;;;;;7.35;3.22;;;;;;;23.99;48.84;99231.97;5118180;28;20032;-65
2023/08/31 04:32:09;;;;;;;6.47;3.47;;;;;;;23.98;48.98;99235.75;5118741;28;20410;-66
2023/08/31 04:34:35;;;;;;;5.40;3.17;;;;;;;24.04;49.71;99240.94;5118326;28;20072;-65
2023/08/31 04:37:01;;;;;;;4.97;3.45;;;;;;;23.91;49.25;99229.75;5118503;28;20490;-66
2023/08/31 04:39:27;;;;;;;5.60;3.20;;;;;;;23.88;50.03;99248.13;5118722;28;20031;-66
2023/08/31 04:41:53;;;;;;;7.72;3.67;;;;;;;23.94;49.58;99235.47;5118818;28;20061;-65
2023/08/31 04:44:18;;;;;;;5.95;3.50;;;;;;;23.74;49.76;99232.59;5099419;28;20356;-65
2023/08/31 04:46:44;;;;;;;5.18;3.30;;;;;;;23.87;49.95;99227.56;5118676;28;20050;-66
2023/08/31 04:49:09;;;;;;;7.53;3.97;;;;;;;23.95;49.55;99231.69;5118486;28;20046;-65
2023/08/31 04:51:39;;;;;;;7.00;3.35;;;;;;;24.00;49.51;99237.13;5118231;28;20042;-65
2023/08/31 04:54:04;;;;;;;10.48;3.70;;;;;;;24.17;49.73;99236.94;5118315;28;20105;-65
2023/08/31 04:56:34;;;;;;;6.03;3.40;;;;;;;24.29;49.82;99239.47;5121299;28;20491;-66
2023/08/31 04:59:01;;;;;;;6.88;3.80;;;;;;;24.34;49.34;99240.31;5121815;28;20059;-65
2023/08/31 05:01:27;;;;;;;8.00;3.35;;;;;;;24.30;49.17;99244.63;5122188;28;20093;-65
2023/08/31 05:03:53;;;;;;;6.45;3.70;;;;;;;24.39;49.45;99243.03;5122327;28;20035;-66
2023/08/31 05:06:18;;;;;;;6.40;3.28;;;;;;;24.50;49.01;99250.13;5122134;28;20179;-65
2023/08/31 05:08:44;;;;;;;6.28;3.50;;;;;;;24.69;48.72;99255.03;5122055;28;20047;-65
2023/08/31 05:11:09;;;;;;;6.88;4.03;;;;;;;24.70;48.67;99248.56;5121928;28;20044;-66
2023/08/31 05:13:35;;;;;;;5.68;3.42;;;;;;;24.79;47.71;99253.19;5121597;28;20267;-67
2023/08/31 05:16:01;;;;;;;5.72;2.95;;;;;;;25.03;47.82;99255.47;5121999;28;20031;-67
2023/08/31 05:18:26;;;;;;;8.07;3.03;;;;;;;25.26;47.65;99248.72;5121910;28;20035;-66
2023/08/31 05:20:52;;;;;;;7.78;2.97;;;;;;;25.38;46.81;99255.50;5121822;28;20317;-66
2023/08/31 05:23:17;;;;;;;5.00;3.10;;;;;;;25.54;46.10;99247.38;5121946;28;20213;-66
2023/08/31 05:25:44;;;;;;;5.95;2.63;;;;;;;25.60;46.26;99243.56;5122106;28;20359;-66
2023/08/31 05:28:09;;;;;;;4.95;2.53;;;;;;;25.75;46.23;99247.09;5122121;28;20039;-66
2023/08/31 05:30:35;;;;;;;4.03;2.63;;;;;;;25.81;44.75;99247.09;5121707;28;20329;-66
2023/08/31 05:33:01;;;;;;;4.90;2.90;;;;;;;25.85;45.24;99243.56;5121905;28;20043;-67
2023/08/31 05:35:27;;;;;;;7.68;3.13;;;;;;;26.08;44.73;99248.41;5122212;28;20035;-66
2023/08/31 05:37:52;;;;;;;7.32;2.92;;;;;;;26.25;43.78;99250.81;5121243;28;20309;-66
2023/08/31 05:40:18;;;;;;;7.00;3.10;;;;;;;26.34;44.07;99253.81;5121254;28;20039;-66
2023/08/31 05:42:44;;;;;;;5.60;3.20;;;;;;;26.47;44.50;99249.69;5120614;28;20054;-66
2023/08/31 05:45:10;;;;;;;6.30;3.63;;;;;;;26.65;43.49;99257.19;5121269;28;20031;-66
2023/08/31 05:47:35;;;;;;;6.40;3.65;;;;;;;26.79;42.67;99265.53;5120979;28;20064;-66
2023/08/31 05:50:01;;;;;;;8.40;3.00;;;;;;;26.93;42.64;99266.56;5120736;28;20035;-66
2023/08/31 05:52:27;;;;;;;6.13;3.20;;;;;;;27.03;41.87;99267.34;5121160;28;20028;-67
2023/08/31 05:54:53;;;;;;;6.32;2.95;;;;;;;26.99;42.06;99260.84;5120605;28;20103;-66
2023/08/31 05:57:21;;;;;;;7.10;2.97;;;;;;;27.06;42.06;99263.28;5120865;28;20031;-66
2023/08/31 05:59:47;;;;;;;7.18;2.97;;;;;;;27.25;42.01;99263.41;5120636;28;20031;-66
2023/08/31 06:02:13;;;;;;;5.32;2.78;;;;;;;27.35;41.35;99264.16;5121555;28;20032;-65
2023/08/31 06:04:38;;;;;;;6.43;2.40;;;;;;;27.53;41.24;99265.38;5121023;28;20133;-66
2023/08/31 06:07:04;;;;;;;4.90;2.05;;;;;;;27.62;41.08;99268.31;5120251;28;20063;-66
2023/08/31 06:09:29;;;;;;;6.10;2.40;;;;;;;27.42;40.10;99258.38;5120271;28;20059;-66
2023/08/31 06:11:55;;;;;;;7.40;2.15;;;;;;;27.69;40.26;99260.63;5120584;28;20042;-65
2023/08/31 06:14:20;;;;;;;5.20;2.55;;;;;;;27.72;39.60;99261.97;5119222;28;20042;-66
2023/08/31 06:16:46;;;;;;;4.10;1.98;;;;;;;27.81;39.47;99266.50;5120249;28;20023;-66
2023/08/31 06:19:15;;;;;;;4.38;1.98;;;;;;;27.90;39.60;99272.13;5120573;28;20035;-66
2023/08/31 06:21:41;;;;;;;3.60;2.00;;;;;;;27.93;39.64;99263.41;5120941;28;20317;-66
2023/08/31 06:24:09;;;;;;;4.72;2.20;;;;;;;27.87;38.88;99278.97;5120742;28;20057;-65
2023/08/31 06:26:35;;;;;;;2.92;1.65;;;;;;;27.81;39.05;99277.38;5120498;28;20039;-66
2023/08/31 06:29:03;;;;;;;3.45;2.25;;;;;;;27.97;39.34;99278.03;5119522;28;20035;-66
2023/08/31 06:31:29;;;;;;;2.80;2.10;;;;;;;28.07;39.69;99277.13;5119587;28;20277;-65
2023/08/31 06:33:54;;;;;;;4.55;2.50;;;;;;;28.29;38.95;99285.66;5119776;28;20067;-66
2023/08/31 06:36:20;;;;;;;4.72;1.98;;;;;;;28.47;39.22;99292.25;5119592;28;20406;-66
2023/08/31 06:38:45;;;;;;;3.05;2.15;;;;;;;28.71;38.68;99284.06;5120540;28;20045;-66
2023/08/31 06:41:11;;;;;;;5.35;2.17;;;;;;;28.78;37.73;99288.06;5120277;28;20039;-66
2023/08/31 06:43:37;;;;;;;8.52;2.05;;;;;;;28.59;38.46;99285.31;5119528;28;20066;-66
2023/08/31 06:46:02;;;;;;;3.67;2.08;;;;;;;28.60;38.83;99283.38;5120294;28;20039;-66
2023/08/31 06:48:28;;;;;;;3.95;1.80;;;;;;;28.45;38.52;99286.28;5120171;28;20070;-66
2023/08/31 06:50:54;;;;;;;5.10;2.10;;;;;;;28.75;37.99;99288.63;5120434;28;20330;-66
2023/08/31 06:53:19;;;;;;;3.65;1.80;;;;;;;28.92;37.40;99288.16;5119907;28;20435;-66
2023/08/31 06:55:45;;;;;;;5.78;2.45;;;;;;;28.88;37.70;99284.41;5119723;28;20040;-66
2023/08/31 06:58:10;;;;;;;6.47;2.25;;;;;;;28.92;37.78;99280.81;5119517;28;20044;-66
2023/08/31 07:00:36;;;;;;;7.32;2.67;;;;;;;29.18;37.05;99277.75;5119286;28;20319;-66
2023/08/31 07:03:02;;;;;;;3.28;2.15;;;;;;;29.35;37.01;99293.56;5119503;28;20097;-66
2023/08/31 07:05:29;;;;;;;3.33;2.20;;;;;;;29.41;36.22;99298.66;5120231;28;20336;-66
2023/08/31 07:07:55;;;;;;;5.80;1.95;;;;;;;29.45;36.80;99301.63;5120092;28;20058;-66
2023/08/31 07:10:21;;;;;;;4.45;2.60;;;;;;;29.50;36.10;99304.28;5119100;28;20323;-66
2023/08/31 07:12:47;;;;;;;3.33;2.00;;;;;;;29.35;36.45;99299.84;5119300;28;20102;-66
2023/08/31 07:15:12;;;;;;;3.38;2.08;;;;;;;29.35;36.73;99301.75;5119573;28;20125;-66
2023/08/31 07:17:38;;;;;;;3.10;1.90;;;;;;;29.55;36.25;99301.47;5119780;28;20202;-66
2023/08/31 07:20:07;;;;;;;6.15;1.90;;;;;;;29.65;36.30;99295.84;5119066;28;20129;-66
2023/08/31 07:22:34;;;;;;;4.28;1.88;;;;;;;29.78;36.81;99295.06;5119058;28;20055;-66
2023/08/31 07:25:00;;;;;;;4.80;1.75;;;;;;;29.87;35.19;99296.00;5119440;28;20032;-66
2023/08/31 07:27:26;;;;;;;3.65;2.03;;;;;;;29.98;35.78;99299.38;5119175;28;20067;-65
2023/08/31 07:29:54;;;;;;;4.97;2.20;;;;;;;30.10;35.57;99301.63;5119131;28;20326;-66
2023/08/31 07:32:20;;;;;;;5.50;2.08;;;;;;;30.18;35.13;99298.25;5119524;28;20027;-66
2023/08/31 07:34:45;;;;;;;3.22;2.30;;;;;;;30.31;35.18;99293.91;5119195;28;20042;-66
2023/08/31 07:37:11;;;;;;;5.13;2.35;;;;;;;30.40;34.28;99294.81;5119467;28;20043;-66
2023/08/31 07:39:36;;;;;;;3.60;2.28;;;;;;;30.59;34.31;99290.06;5119006;28;20031;-66
2023/08/31 07:42:02;;;;;;;5.07;2.30;;;;;;;30.62;34.59;99289.47;5119008;28;20098;-66
2023/08/31 07:44:28;;;;;;;4.95;2.10;;;;;;;30.64;33.74;99286.44;5118308;28;20040;-65
2023/08/31 07:46:53;;;;;;;5.43;2.67;;;;;;;30.62;34.48;99291.38;5119322;28;20035;-66
2023/08/31 07:49:19;;;;;;;5.15;2.28;;;;;;;30.77;34.67;99293.81;5118909;28;20044;-66
2023/08/31 07:51:44;;;;;;;4.20;2.05;;;;;;;30.91;33.97;99285.56;5118655;28;20076;-66
2023/08/31 07:54:10;;;;;;;4.72;2.20;;;;;;;31.16;34.18;99285.03;5119026;28;20043;-66
2023/08/31 07:56:35;;;;;;;5.43;2.80;;;;;;;31.42;32.24;99285.25;5118639;28;20035;-66
2023/08/31 07:59:01;;;;;;;8.40;2.70;;;;;;;31.32;32.66;99286.31;5118878;28;20031;-65
2023/08/31 08:01:27;;;;;;;4.53;2.00;;;;;;;31.31;32.56;99287.44;5118861;28;20237;-66
2023/08/31 08:03:52;;;;;;;4.97;1.95;;;;;;;31.48;31.58;99278.56;5118269;28;20032;-65
2023/08/31 08:06:18;;;;;;;5.38;2.28;;;;;;;31.59;32.42;99282.66;5118558;28;20058;-64
2023/08/31 08:08:44;;;;;;;3.50;2.08;;;;;;;31.52;32.28;99282.28;5118725;28;20038;-65
2023/08/31 08:11:09;;;;;;;3.42;1.67;;;;;;;31.28;32.34;99273.56;5118874;28;20042;-65
2023/08/31 08:13:35;;;;;;;5.45;2.00;;;;;;;31.58;32.21;99280.22;5118473;28;20122;-65
2023/08/31 08:16:01;;;;;;;9.35;2.47;;;;;;;31.70;31.44;99270.34;5118894;28;20032;-65
2023/08/31 08:18:26;;;;;;;4.93;1.90;;;;;;;31.69;31.50;99279.69;5118387;28;20039;-66
2023/08/31 08:20:53;;;;;;;2.97;1.63;;;;;;;31.69;32.28;99273.38;5118410;28;20065;-66
2023/08/31 08:23:19;;;;;;;10.95;2.10;;;;;;;31.81;31.56;99264.63;5118728;28;20092;-64
2023/08/31 08:25:45;;;;;;;6.05;1.60;;;;;;;31.90;30.14;99271.75;5118982;28;20198;-64
2023/08/31 08:28:10;;;;;;;5.03;1.52;;;;;;;32.07;30.26;99271.84;5118120;28;20096;-64
2023/08/31 08:30:36;;;;;;;3.40;1.70;;;;;;;32.26;30.33;99271.66;5121697;28;20039;-64
2023/08/31 08:33:02;;;;;;;3.13;1.40;;;;;;;32.35;30.88;99274.41;5122853;28;20349;-64
2023/08/31 08:35:28;;;;;;;2.20;1.38;;;;;;;32.41;30.35;99264.13;5122731;28;20031;-64
2023/08/31 08:37:53;;;;;;;3.97;1.58;;;;;;;32.30;30.58;99264.41;5121807;28;20437;-66
2023/08/31 08:40:19;;;;;;;3.05;1.58;;;;;;;32.32;29.88;99264.09;5122034;28;20039;-66
2023/08/31 08:42:47;;;;;;;4.65;1.60;;;;;;;32.38;30.60;99258.16;5103509;28;20059;-66
2023/08/31 08:45:15;;;;;;;4.78;1.38;;;;;;;32.35;29.09;99258.78;5121963;28;20043;-66
2023/08/31 08:47:43;;;;;;;1.95;1.60;;;;;;;32.31;28.25;99271.50;5121863;28;20044;-66
2023/08/31 08:50:11;;;;;;;7.95;1.70;;;;;;;32.32;29.69;99255.88;5122192;28;20035;-64
2023/08/31 08:52:37;;;;;;;3.08;1.40;;;;;;;31.90;29.92;99268.22;5122533;28;20028;-66
2023/08/31 08:55:04;;;;;;;3.38;1.70;;;;;;;31.85;30.09;99269.16;5122378;28;20031;-64
2023/08/31 08:57:34;;;;;;;3.53;1.52;;;;;;;31.73;30.87;99260.72;5122691;28;20313;-65
2023/08/31 08:59:59;;;;;;;5.15;1.70;;;;;;;31.79;31.02;99258.66;5121680;28;20035;-64
2023/08/31 09:02:25;;;;;;;2.67;1.33;;;;;;;31.59;30.43;99259.94;5122223;28;20042;-64
2023/08/31 09:04:54;;;;;;;4.13;1.60;;;;;;;31.36;30.88;99257.22;5122137;28;20035;-64
2023/08/31 09:07:21;;;;;;;3.47;1.48;;;;;;;31.55;31.74;99257.03;5121673;28;20065;-64
2023/08/31 09:16:47;;;;;;;6.00;1.70;;;;;;;31.96;31.37;99256.81;5120975;28;20053;-64
2023/08/31 09:19:21;;;;;;;4.43;2.33;;;;;;;32.02;30.41;99258.28;5121316;28;20241;-64
2023/08/31 09:21:48;;;;;;;4.47;1.73;;;;;;;32.07;30.61;99260.88;5121627;28;20039;-64
2023/08/31 09:24:14;;;;;;;5.18;1.98;;;;;;;32.04;29.98;99257.97;5121183;28;20081;-64
2023/08/31 09:26:48;;;;;;;2.80;1.75;;;;;;;32.01;30.32;99250.38;5121281;28;20247;-64
2023/08/31 09:29:13;;;;;;;3.60;1.80;;;;;;;31.99;29.51;99252.63;5121146;28;20338;-65
2023/08/31 09:31:46;;;;;;;3.67;1.88;;;;;;;32.07;28.86;99244.44;5121375;28;20334;-65
2023/08/31 09:34:13;;;;;;;6.80;2.38;;;;;;;32.12;28.75;99243.50;5121312;28;20048;-64
2023/08/31 09:36:39;;;;;;;1.90;1.50;;;;;;;32.10;30.32;99242.19;5121034;28;20059;-64
2023/08/31 09:39:06;;;;;;;3.50;1.67;;;;;;;32.03;29.35;99242.66;5122100;28;20316;-64
2023/08/31 09:41:34;;;;;;;3.47;1.58;;;;;;;31.90;29.51;99249.03;5121376;28;20043;-65
2023/08/31 09:44:20;;;;;;;4.57;1.52;;;;;;;32.03;30.74;99238.00;5120622;28;20036;-65
2023/08/31 09:46:46;;;;;;;3.05;1.60;;;;;;;32.00;29.85;99240.56;5121608;28;20062;-65
2023/08/31 09:49:16;;;;;;;2.67;1.65;;;;;;;31.85;29.20;99243.69;5121451;28;20050;-64
2023/08/31 09:51:46;;;;;;;2.15;1.52;;;;;;;31.83;29.33;99237.72;5121465;28;20047;-64
2023/08/31 09:54:23;;;;;;;2.72;1.63;;;;;;;31.56;29.35;99247.69;5121408;28;20039;-65
2023/08/31 09:56:50;;;;;;;4.32;1.60;;;;;;;31.67;28.39;99250.97;5121237;28;20036;-65
2023/08/31 09:59:16;;;;;;;4.57;1.52;;;;;;;31.68;29.46;99239.72;5121134;28;20378;-66
2023/08/31 10:01:45;;;;;;;3.38;1.60;;;;;;;31.87;30.28;99244.19;5120903;28;20023;-66
2023/08/31 10:04:12;;;;;;;3.33;1.75;;;;;;;31.96;30.12;99245.84;5120470;28;20241;-65
2023/08/31 10:06:42;;;;;;;3.45;1.60;;;;;;;32.03;28.33;99242.66;5120655;28;20106;-65
2023/08/31 10:09:11;;;;;;;3.50;1.75;;;;;;;31.85;28.21;99246.44;5120841;28;20027;-65
2023/08/31 10:11:38;;;;;;;3.53;1.70;;;;;;;31.82;28.45;99242.41;5121091;28;20040;-66
2023/08/31 10:14:04;;;;;;;3.45;1.50;;;;;;;31.72;29.75;99238.00;5120416;28;20096;-66
2023/08/31 10:16:30;;;;;;;3.22;1.90;;;;;;;31.64;29.45;99243.41;5121419;28;20251;-65
2023/08/31 10:18:56;;;;;;;2.92;1.65;;;;;;;31.67;28.32;99237.28;5120652;28;20260;-65
2023/08/31 10:21:23;;;;;;;3.22;1.63;;;;;;;31.67;29.34;99237.28;5120636;28;20038;-65
2023/08/31 10:23:49;;;;;;;3.63;1.80;;;;;;;31.69;28.99;99226.84;5120966;28;20028;-66
2023/08/31 10:26:29;;;;;;;4.68;1.88;;;;;;;31.79;30.20;99237.56;5120733;28;20319;-65
2023/08/31 10:28:56;;;;;;;4.03;1.70;;;;;;;31.67;28.80;99238.09;5120474;28;20055;-65
2023/08/31 10:31:22;;;;;;;2.80;2.05;;;;;;;31.64;29.48;99240.66;5120476;28;20046;-65
2023/08/31 10:33:58;;;;;;;3.55;1.70;;;;;;;31.70;29.00;99242.19;5120301;28;20036;-65
2023/08/31 10:36:36;;;;;;;3.80;1.45;;;;;;;31.67;27.95;99243.56;5120365;28;20071;-65
2023/08/31 10:39:12;;;;;;;3.67;2.15;;;;;;;31.69;28.79;99240.53;5119972;28;20042;-65
2023/08/31 10:41:38;;;;;;;3.67;1.65;;;;;;;31.73;28.98;99233.34;5120559;28;20241;-65
2023/08/31 10:44:21;;;;;;;5.72;1.90;;;;;;;31.74;29.42;99230.28;5119816;28;20031;-65
2023/08/31 10:46:47;;;;;;;5.40;1.90;;;;;;;31.75;29.78;99229.16;5120166;28;20039;-65
2023/08/31 10:49:17;;;;;;;4.47;1.70;;;;;;;31.77;29.75;99237.06;5119801;28;20385;-65
2023/08/31 10:51:48;;;;;;;3.33;1.75;;;;;;;31.72;30.45;99234.47;5120007;28;20046;-65
2023/08/31 10:54:37;;;;;;;4.78;1.77;;;;;;;31.63;29.70;99236.31;5119487;28;20048;-65
2023/08/31 10:57:05;;;;;;;2.35;1.70;;;;;;;31.57;29.66;99238.38;5120217;28;20120;-64
2023/08/31 10:59:53;;;;;;;4.38;1.70;;;;;;;31.64;29.75;99240.66;5119501;28;20336;-65
2023/08/31 11:02:35;;;;;;;3.58;1.95;;;;;;;31.73;29.21;99236.88;5119838;28;20051;-65
2023/08/31 11:05:05;;;;;;;4.00;2.10;;;;;;;31.73;29.98;99242.34;5119761;28;20129;-65
2023/08/31 11:07:31;;;;;;;5.35;1.90;;;;;;;31.71;29.11;99243.78;5119437;28;20055;-66
2023/08/31 11:10:09;;;;;;;3.22;2.10;;;;;;;31.69;29.47;99238.63;5120008;28;20031;-65
2023/08/31 11:12:34;;;;;;;5.63;2.25;;;;;;;31.85;29.48;99239.03;5119298;28;20031;-66
2023/08/31 11:15:00;;;;;;;4.68;1.90;;;;;;;31.95;29.63;99233.28;5119634;28;20114;-65
2023/08/31 11:17:27;;;;;;;2.28;1.85;;;;;;;32.01;28.16;99233.94;5119594;28;20279;-65
2023/08/31 11:19:53;;;;;;;4.35;1.90;;;;;;;32.09;29.52;99227.69;5119474;28;20065;-65
2023/08/31 11:22:18;;;;;;;5.53;2.20;;;;;;;32.18;29.03;99220.31;5119429;28;20379;-65
2023/08/31 11:24:44;;;;;;;3.17;2.10;;;;;;;32.23;29.72;99231.13;5118878;28;20051;-67
2023/08/31 11:27:10;;;;;;;2.70;2.20;;;;;;;32.16;27.80;99222.56;5119150;28;20039;-65
2023/08/31 11:29:53;;;;;;;4.15;2.40;;;;;;;32.18;28.19;99222.25;5118657;28;20035;-65
2023/08/31 11:32:19;;;;;;;4.25;1.90;;;;;;;32.28;29.54;99219.28;5119551;28;20051;-66
2023/08/31 11:34:45;;;;;;;2.83;1.80;;;;;;;32.34;28.72;99216.06;5119204;28;20059;-66
2023/08/31 11:37:17;;;;;;;2.95;1.80;;;;;;;32.24;27.82;99212.78;5119575;28;20062;-65
2023/08/31 11:39:51;;;;;;;2.85;1.60;;;;;;;32.04;27.84;99209.47;5118670;28;20072;-65
2023/08/31 11:42:18;;;;;;;3.55;1.88;;;;;;;32.11;29.35;99208.22;5119046;28;20073;-65
2023/08/31 11:44:49;;;;;;;4.40;2.15;;;;;;;32.18;30.39;99217.59;5118541;28;20040;-65